Three Rivers — WDH2225 — position and weather

sailwx.info

Track history (hours):
 
Tides and Currents Weather Stations Pressure Air Temp Water Temp Dewpoint Dewpoint Depression Visibility Wind Speed Wind Dir Waves Ship Positions

Three Rivers

Owner: Higman Barge Lines, Inc., Orange, TX. More information available from US FCC via Universal Licensing System and Coast Guard Vessel Documentation Center.

Last reported at 2018-Feb-20 12:53 UTC. Time now 2018-Feb-23 20:16 UTC.
Position N 28°49' W 095°32'.

Length 23 m; draft 3 m.

Type: Towing. MMSI: 367595460.

Date/timePositionNaut miles runAvg speedWind from/ knotsBaromVisibWave heightAir tempDewpointWater temp
2018-Feb-20 12:53N 28°49' W 095°32'11 2.1
2018-Feb-20 07:32N 28°55' W 095°22'0 0.0
2018-Feb-20 07:28N 28°55' W 095°22'35 3.2
2018-Feb-19 20:39N 29°18' W 094°53'1 6.1
2018-Feb-19 20:27N 29°19' W 094°51'5 7.3
2018-Feb-19 19:47N 29°22' W 094°47'2 5.8
2018-Feb-19 19:26N 29°24' W 094°45'1 0.6
2018-Feb-19 18:28N 29°24' W 094°45'1 2.4
2018-Feb-19 18:00N 29°25' W 094°44'1 2.5
2018-Feb-19 17:29N 29°26' W 094°43'0 0.9
2018-Feb-19 17:00N 29°25' W 094°43'0 0.1
2018-Feb-19 16:30N 29°25' W 094°43'0 0.7
2018-Feb-19 16:00N 29°26' W 094°43'3 4.9
2018-Feb-19 15:27N 29°24' W 094°45'3 6.1
2018-Feb-19 14:53N 29°22' W 094°48'0 0.9
2018-Feb-19 14:30N 29°22' W 094°49'2 3.5
2018-Feb-19 14:01N 29°22' W 094°50'3 6.3
2018-Feb-19 13:30N 29°22' W 094°54'0 0.7
2018-Feb-19 13:00N 29°22' W 094°54'0 0.0
2018-Feb-19 11:10N 29°22' W 094°54'0 0.0
2018-Feb-19 10:37N 29°22' W 094°54'0 0.0
2018-Feb-19 10:30N 29°22' W 094°54'0 0.0
2018-Feb-19 09:57N 29°22' W 094°54'0 0.0
2018-Feb-19 09:18N 29°22' W 094°54'0 0.0
2018-Feb-19 09:00N 29°22' W 094°54'0 0.0
2018-Feb-19 08:30N 29°22' W 094°54'0 0.0
2018-Feb-19 08:00N 29°22' W 094°54'0 0.0
2018-Feb-19 07:30N 29°22' W 094°54'0 0.0
2018-Feb-19 06:53N 29°22' W 094°54'0 0.0
2018-Feb-19 06:28N 29°22' W 094°54'0 0.0
2018-Feb-19 06:00N 29°22' W 094°54'0 0.0
2018-Feb-19 05:28N 29°22' W 094°54'0 0.0
2018-Feb-19 05:00N 29°22' W 094°54'5 1.5
2018-Feb-19 01:28N 29°25' W 094°50'5 7.8
2018-Feb-19 00:52N 29°30' W 094°52'3 8.4
2018-Feb-19 00:30N 29°32' W 094°54'4 8.8
2018-Feb-19 00:01N 29°36' W 094°57'4 8.9
2018-Feb-18 23:31N 29°40' W 094°59'4 8.2
2018-Feb-18 23:00N 29°43' W 095°01'4 0.2
2018-Feb-17 23:48N 29°45' W 095°06'1 4.0
2018-Feb-17 23:28N 29°46' W 095°05'1 0.1
2018-Feb-17 06:52N 29°47' W 095°06'0 0.0
2018-Feb-17 06:27N 29°47' W 095°06'0 0.0
2018-Feb-17 05:54N 29°47' W 095°06'0 0.0
2018-Feb-17 05:29N 29°47' W 095°06'0 0.0
2018-Feb-17 04:55N 29°47' W 095°06'0 0.0
2018-Feb-16 23:48N 29°47' W 095°06'0 0.0
2018-Feb-16 21:48N 29°47' W 095°06'0 0.0
2018-Feb-16 18:47N 29°47' W 095°06'0 0.0
2018-Feb-16 18:31N 29°47' W 095°06'0 0.0
2018-Feb-16 18:00N 29°47' W 095°06'0 0.0
2018-Feb-16 17:31N 29°47' W 095°06'0 0.0
2018-Feb-16 17:00N 29°47' W 095°06'0 0.0
2018-Feb-16 16:29N 29°47' W 095°06'0 0.0
2018-Feb-16 15:58N 29°47' W 095°06'1 1.4
2018-Feb-16 15:28N 29°46' W 095°06'2 3.9
2018-Feb-16 15:00N 29°45' W 095°04'3 5.8
2018-Feb-16 14:30N 29°44' W 095°01'3 5.4
2018-Feb-16 14:01N 29°45' W 095°04'2 4.5
2018-Feb-16 13:30N 29°45' W 095°07'9 3.4
2018-Feb-16 10:43N 29°39' W 094°58'11 3.7
2018-Feb-16 07:53N 29°47' W 095°06'0 0.0
2018-Feb-16 07:26N 29°47' W 095°06'0 0.0
2018-Feb-16 06:55N 29°47' W 095°06'0 0.0
2018-Feb-16 06:14N 29°47' W 095°06'0 0.0
2018-Feb-16 04:53N 29°47' W 095°06'0 0.0
2018-Feb-16 04:30N 29°47' W 095°06'0 0.0
2018-Feb-16 03:58N 29°47' W 095°06'0 0.0
2018-Feb-16 03:30N 29°47' W 095°06'0 0.0
2018-Feb-16 02:58N 29°47' W 095°06'0 0.0
2018-Feb-16 02:23N 29°47' W 095°06'0 0.0
2018-Feb-16 01:54N 29°47' W 095°06'25 4.0
2018-Feb-15 19:36N 29°26' W 094°50'4 9.1
2018-Feb-15 19:12N 29°22' W 094°48'3 4.4
2018-Feb-15 18:25N 29°24' W 094°45'0 0.4
2018-Feb-15 17:13N 29°25' W 094°44'1 0.6
2018-Feb-15 15:34N 29°24' W 094°45'0 0.0
2018-Feb-15 13:39N 29°24' W 094°45'0 0.0
2018-Feb-15 13:28N 29°24' W 094°45'0 0.0
2018-Feb-15 13:00N 29°24' W 094°45'0 0.0
2018-Feb-15 12:29N 29°24' W 094°45'0 0.0
2018-Feb-15 11:45N 29°24' W 094°45'0 0.0
2018-Feb-15 10:39N 29°24' W 094°45'0 0.0
2018-Feb-15 10:13N 29°24' W 094°45'0 0.0
2018-Feb-15 09:59N 29°24' W 094°45'0 0.0
2018-Feb-15 09:30N 29°24' W 094°45'0 0.0
2018-Feb-15 08:57N 29°24' W 094°45'0 0.0
2018-Feb-15 08:29N 29°24' W 094°45'0 0.0
2018-Feb-15 08:00N 29°24' W 094°45'0 0.0
2018-Feb-15 07:30N 29°24' W 094°45'0 0.0
2018-Feb-15 06:58N 29°24' W 094°45'0 0.0
2018-Feb-15 06:28N 29°24' W 094°45'0 0.0
2018-Feb-15 06:00N 29°24' W 094°45'0 0.0
2018-Feb-15 05:29N 29°24' W 094°45'0 0.0
2018-Feb-15 05:00N 29°24' W 094°45'0 0.0
2018-Feb-15 04:30N 29°24' W 094°45'0 0.0
2018-Feb-15 04:00N 29°24' W 094°45'0 0.0
2018-Feb-15 03:30N 29°24' W 094°45'0 0.0
2018-Feb-15 03:00N 29°24' W 094°45'0 0.0
2018-Feb-15 02:31N 29°24' W 094°45'0 0.0
2018-Feb-15 01:59N 29°24' W 094°45'0 0.0
2018-Feb-15 01:27N 29°24' W 094°45'0 0.0
2018-Feb-15 00:42N 29°24' W 094°45'0 0.0
2018-Feb-15 00:18N 29°24' W 094°45'0 0.0
2018-Feb-14 23:54N 29°24' W 094°45'0 0.0
2018-Feb-14 23:30N 29°24' W 094°45'0 0.0
2018-Feb-14 22:58N 29°24' W 094°45'0 0.0
2018-Feb-14 22:25N 29°24' W 094°45'0 0.0
2018-Feb-14 22:00N 29°24' W 094°45'0 0.0
2018-Feb-14 21:08N 29°24' W 094°45'0 0.0
2018-Feb-14 20:55N 29°24' W 094°45'0 0.0
2018-Feb-14 20:28N 29°24' W 094°45'0 0.1
2018-Feb-14 19:04N 29°24' W 094°45'0 0.0
2018-Feb-14 18:55N 29°24' W 094°45'0 0.2
2018-Feb-14 18:30N 29°24' W 094°45'2 5.0
2018-Feb-14 18:00N 29°22' W 094°47'4 7.4
2018-Feb-14 17:30N 29°22' W 094°51'28 0.6
2018-Feb-12 18:38N 29°36' W 094°23'0 1.9
2018-Feb-12 18:25N 29°36' W 094°22'0 0.5
2018-Feb-12 18:00N 29°36' W 094°22'2 3.2
2018-Feb-12 17:24N 29°37' W 094°20'2 5.6
2018-Feb-12 17:00N 29°38' W 094°18'3 5.9
2018-Feb-12 16:30N 29°40' W 094°15'3 5.9
2018-Feb-12 16:00N 29°41' W 094°12'3 5.4
2018-Feb-12 15:31N 29°42' W 094°09'2 3.7
2018-Feb-12 15:01N 29°43' W 094°07'3 5.7
2018-Feb-12 14:29N 29°45' W 094°05'3 5.6
2018-Feb-12 14:01N 29°47' W 094°02'3 5.5
2018-Feb-12 13:30N 29°48' W 093°60'2 3.1
2018-Feb-12 13:01N 29°49' W 093°58'3 6.9
2018-Feb-12 12:30N 29°52' W 093°56'5 9.3
2018-Feb-12 12:00N 29°56' W 093°53'3 6.4
2018-Feb-12 11:30N 29°59' W 093°52'0 0.6
2018-Feb-12 11:01N 29°59' W 093°53'0 0.1
2018-Feb-12 10:29N 29°59' W 093°53'0 0.0
2018-Feb-12 10:00N 29°59' W 093°53'0 0.0
2018-Feb-12 09:30N 29°59' W 093°53'0 0.0
2018-Feb-12 09:00N 29°59' W 093°53'0 0.0
2018-Feb-12 08:31N 29°59' W 093°53'0 0.0
2018-Feb-12 08:00N 29°59' W 093°53'0 0.0
2018-Feb-12 07:30N 29°59' W 093°53'0 0.0
2018-Feb-12 07:00N 29°59' W 093°53'0 0.0
2018-Feb-12 06:31N 29°59' W 093°53'0 0.0
2018-Feb-12 06:01N 29°59' W 093°53'0 0.0
2018-Feb-12 05:30N 29°59' W 093°53'0 0.0
2018-Feb-12 05:00N 29°59' W 093°53'0 0.0
2018-Feb-12 04:31N 29°59' W 093°53'0 0.0
2018-Feb-12 04:00N 29°59' W 093°53'0 0.0
2018-Feb-12 03:30N 29°59' W 093°53'0 0.0
2018-Feb-12 03:00N 29°59' W 093°53'0 0.0
2018-Feb-12 02:30N 29°59' W 093°53'0 0.0
2018-Feb-12 02:00N 29°59' W 093°53'0 0.0
2018-Feb-12 01:30N 29°59' W 093°53'0 0.0
2018-Feb-12 01:00N 29°59' W 093°53'0 0.0
2018-Feb-12 00:31N 29°59' W 093°53'0 0.0
2018-Feb-12 00:00N 29°59' W 093°53'0 0.0
2018-Feb-11 23:30N 29°59' W 093°53'0 0.0
2018-Feb-11 22:59N 29°59' W 093°53'0 0.0
2018-Feb-11 22:30N 29°59' W 093°53'0 0.0
2018-Feb-11 22:00N 29°59' W 093°53'0 0.0
2018-Feb-11 21:30N 29°59' W 093°53'0 0.0
2018-Feb-11 21:00N 29°59' W 093°53'0 0.0
2018-Feb-11 20:26N 29°59' W 093°53'0 0.0
2018-Feb-11 20:00N 29°59' W 093°53'0 0.0
2018-Feb-11 19:30N 29°59' W 093°53'0 0.0
2018-Feb-11 19:00N 29°59' W 093°53'0 0.0
2018-Feb-11 18:30N 29°59' W 093°53'0 0.0
2018-Feb-11 18:00N 29°59' W 093°53'0 0.0
2018-Feb-11 17:30N 29°59' W 093°53'0 0.0
2018-Feb-11 17:01N 29°59' W 093°53'0 0.0
2018-Feb-11 16:30N 29°59' W 093°53'0 0.0
2018-Feb-11 16:01N 29°59' W 093°53'0 0.0
2018-Feb-11 15:30N 29°59' W 093°53'0 0.0
2018-Feb-11 15:00N 29°59' W 093°53'0 0.0
2018-Feb-11 14:30N 29°59' W 093°53'0 0.0
2018-Feb-11 14:00N 29°59' W 093°53'0 0.0
2018-Feb-11 13:31N 29°59' W 093°53'1 1.4
2018-Feb-11 13:00N 29°59' W 093°54'1 2.2
2018-Feb-11 12:30N 29°60' W 093°55'0 0.0
2018-Feb-11 12:00N 29°60' W 093°55'0 0.0
2018-Feb-11 11:30N 29°60' W 093°55'0 0.0
2018-Feb-11 11:00N 29°60' W 093°55'0 0.0
2018-Feb-11 10:30N 29°60' W 093°55'0 0.0
2018-Feb-11 10:00N 29°60' W 093°55'0 0.0
2018-Feb-11 09:30N 29°60' W 093°55'0 0.0
2018-Feb-11 09:00N 29°60' W 093°55'0 0.0
2018-Feb-11 08:30N 29°60' W 093°55'0 0.0
2018-Feb-11 08:00N 29°60' W 093°55'0 0.0
2018-Feb-11 07:30N 29°60' W 093°55'0 0.0
2018-Feb-11 07:00N 29°60' W 093°55'0 0.0
2018-Feb-11 06:30N 29°60' W 093°55'0 0.0
2018-Feb-11 06:00N 29°60' W 093°55'0 0.0
2018-Feb-11 05:30N 29°60' W 093°55'0 0.0
2018-Feb-11 05:00N 29°60' W 093°55'0 0.0
2018-Feb-11 04:30N 29°60' W 093°55'0 0.0
2018-Feb-11 04:00N 29°60' W 093°55'0 0.0
2018-Feb-11 03:30N 29°60' W 093°55'0 0.0
2018-Feb-11 02:59N 29°60' W 093°55'0 0.0
2018-Feb-11 02:30N 29°60' W 093°55'0 0.0
2018-Feb-11 02:00N 29°60' W 093°55'0 0.0
2018-Feb-11 01:30N 29°60' W 093°55'0 0.0
2018-Feb-11 00:59N 29°60' W 093°55'0 0.0
2018-Feb-11 00:30N 29°60' W 093°55'0 0.0
2018-Feb-11 00:00N 29°60' W 093°55'0 0.0
2018-Feb-10 23:30N 29°60' W 093°55'0 0.0
2018-Feb-10 23:00N 29°60' W 093°55'0 0.0
2018-Feb-10 22:29N 29°60' W 093°55'0 0.0
2018-Feb-10 22:01N 29°60' W 093°55'0 0.0
2018-Feb-10 21:30N 29°60' W 093°55'0 0.0
2018-Feb-10 21:00N 29°60' W 093°55'0 0.0
2018-Feb-10 20:31N 29°60' W 093°55'0 0.0
2018-Feb-10 20:00N 29°60' W 093°55'0 0.0
2018-Feb-10 19:30N 29°60' W 093°55'0 0.0
2018-Feb-10 19:00N 29°60' W 093°55'0 0.0
2018-Feb-10 18:30N 29°60' W 093°55'0 0.0
2018-Feb-10 18:00N 29°60' W 093°55'0 0.0
2018-Feb-10 17:30N 29°60' W 093°55'0 0.0
2018-Feb-10 17:00N 29°60' W 093°55'0 0.0
2018-Feb-10 16:30N 29°60' W 093°55'0 0.0
2018-Feb-10 16:00N 29°60' W 093°55'0 0.0
2018-Feb-10 15:30N 29°60' W 093°55'0 0.0
2018-Feb-10 15:00N 29°60' W 093°55'0 0.0
2018-Feb-10 14:30N 29°60' W 093°55'0 0.0
2018-Feb-10 14:01N 29°60' W 093°55'0 0.0
2018-Feb-10 13:30N 29°60' W 093°55'0 0.0
2018-Feb-10 13:00N 29°60' W 093°55'  
Track history (hours):
 
Tides and Currents Weather Stations Pressure Air Temp Water Temp Dewpoint Dewpoint Depression Visibility Wind Speed Wind Dir Waves Ship Positions

Three Rivers

Owner: Higman Barge Lines, Inc., Orange, TX. More information available from US FCC via Universal Licensing System and Coast Guard Vessel Documentation Center.

Last reported at 2018-Feb-20 12:53 UTC. Time now 2018-Feb-23 20:16 UTC.
Position N 28°49' W 095°32'.

Length 23 m; draft 3 m.

Type: Towing. MMSI: 367595460.

Date/timePositionNaut miles runAvg speedWind from/ knotsBaromVisibWave heightAir tempDewpointWater temp
2018-Feb-20 12:53N 28°49' W 095°32'11 2.1
2018-Feb-20 07:32N 28°55' W 095°22'0 0.0
2018-Feb-20 07:28N 28°55' W 095°22'35 3.2
2018-Feb-19 20:39N 29°18' W 094°53'1 6.1
2018-Feb-19 20:27N 29°19' W 094°51'5 7.3
2018-Feb-19 19:47N 29°22' W 094°47'2 5.8
2018-Feb-19 19:26N 29°24' W 094°45'1 0.6
2018-Feb-19 18:28N 29°24' W 094°45'1 2.4
2018-Feb-19 18:00N 29°25' W 094°44'1 2.5
2018-Feb-19 17:29N 29°26' W 094°43'0 0.9
2018-Feb-19 17:00N 29°25' W 094°43'0 0.1
2018-Feb-19 16:30N 29°25' W 094°43'0 0.7
2018-Feb-19 16:00N 29°26' W 094°43'3 4.9
2018-Feb-19 15:27N 29°24' W 094°45'3 6.1
2018-Feb-19 14:53N 29°22' W 094°48'0 0.9
2018-Feb-19 14:30N 29°22' W 094°49'2 3.5
2018-Feb-19 14:01N 29°22' W 094°50'3 6.3
2018-Feb-19 13:30N 29°22' W 094°54'0 0.7
2018-Feb-19 13:00N 29°22' W 094°54'0 0.0
2018-Feb-19 11:10N 29°22' W 094°54'0 0.0
2018-Feb-19 10:37N 29°22' W 094°54'0 0.0
2018-Feb-19 10:30N 29°22' W 094°54'0 0.0
2018-Feb-19 09:57N 29°22' W 094°54'0 0.0
2018-Feb-19 09:18N 29°22' W 094°54'0 0.0
2018-Feb-19 09:00N 29°22' W 094°54'0 0.0
2018-Feb-19 08:30N 29°22' W 094°54'0 0.0
2018-Feb-19 08:00N 29°22' W 094°54'0 0.0
2018-Feb-19 07:30N 29°22' W 094°54'0 0.0
2018-Feb-19 06:53N 29°22' W 094°54'0 0.0
2018-Feb-19 06:28N 29°22' W 094°54'0 0.0
2018-Feb-19 06:00N 29°22' W 094°54'0 0.0
2018-Feb-19 05:28N 29°22' W 094°54'0 0.0
2018-Feb-19 05:00N 29°22' W 094°54'5 1.5
2018-Feb-19 01:28N 29°25' W 094°50'5 7.8
2018-Feb-19 00:52N 29°30' W 094°52'3 8.4
2018-Feb-19 00:30N 29°32' W 094°54'4 8.8
2018-Feb-19 00:01N 29°36' W 094°57'4 8.9
2018-Feb-18 23:31N 29°40' W 094°59'4 8.2
2018-Feb-18 23:00N 29°43' W 095°01'4 0.2
2018-Feb-17 23:48N 29°45' W 095°06'1 4.0
2018-Feb-17 23:28N 29°46' W 095°05'1 0.1
2018-Feb-17 06:52N 29°47' W 095°06'0 0.0
2018-Feb-17 06:27N 29°47' W 095°06'0 0.0
2018-Feb-17 05:54N 29°47' W 095°06'0 0.0
2018-Feb-17 05:29N 29°47' W 095°06'0 0.0
2018-Feb-17 04:55N 29°47' W 095°06'0 0.0
2018-Feb-16 23:48N 29°47' W 095°06'0 0.0
2018-Feb-16 21:48N 29°47' W 095°06'0 0.0
2018-Feb-16 18:47N 29°47' W 095°06'0 0.0
2018-Feb-16 18:31N 29°47' W 095°06'0 0.0
2018-Feb-16 18:00N 29°47' W 095°06'0 0.0
2018-Feb-16 17:31N 29°47' W 095°06'0 0.0
2018-Feb-16 17:00N 29°47' W 095°06'0 0.0
2018-Feb-16 16:29N 29°47' W 095°06'0 0.0
2018-Feb-16 15:58N 29°47' W 095°06'1 1.4
2018-Feb-16 15:28N 29°46' W 095°06'2 3.9
2018-Feb-16 15:00N 29°45' W 095°04'3 5.8
2018-Feb-16 14:30N 29°44' W 095°01'3 5.4
2018-Feb-16 14:01N 29°45' W 095°04'2 4.5
2018-Feb-16 13:30N 29°45' W 095°07'9 3.4
2018-Feb-16 10:43N 29°39' W 094°58'11 3.7
2018-Feb-16 07:53N 29°47' W 095°06'0 0.0
2018-Feb-16 07:26N 29°47' W 095°06'0 0.0
2018-Feb-16 06:55N 29°47' W 095°06'0 0.0
2018-Feb-16 06:14N 29°47' W 095°06'0 0.0
2018-Feb-16 04:53N 29°47' W 095°06'0 0.0
2018-Feb-16 04:30N 29°47' W 095°06'0 0.0
2018-Feb-16 03:58N 29°47' W 095°06'0 0.0
2018-Feb-16 03:30N 29°47' W 095°06'0 0.0
2018-Feb-16 02:58N 29°47' W 095°06'0 0.0
2018-Feb-16 02:23N 29°47' W 095°06'0 0.0
2018-Feb-16 01:54N 29°47' W 095°06'25 4.0
2018-Feb-15 19:36N 29°26' W 094°50'4 9.1
2018-Feb-15 19:12N 29°22' W 094°48'3 4.4
2018-Feb-15 18:25N 29°24' W 094°45'0 0.4
2018-Feb-15 17:13N 29°25' W 094°44'1 0.6
2018-Feb-15 15:34N 29°24' W 094°45'0 0.0
2018-Feb-15 13:39N 29°24' W 094°45'0 0.0
2018-Feb-15 13:28N 29°24' W 094°45'0 0.0
2018-Feb-15 13:00N 29°24' W 094°45'0 0.0
2018-Feb-15 12:29N 29°24' W 094°45'0 0.0
2018-Feb-15 11:45N 29°24' W 094°45'0 0.0
2018-Feb-15 10:39N 29°24' W 094°45'0 0.0
2018-Feb-15 10:13N 29°24' W 094°45'0 0.0
2018-Feb-15 09:59N 29°24' W 094°45'0 0.0
2018-Feb-15 09:30N 29°24' W 094°45'0 0.0
2018-Feb-15 08:57N 29°24' W 094°45'0 0.0
2018-Feb-15 08:29N 29°24' W 094°45'0 0.0
2018-Feb-15 08:00N 29°24' W 094°45'0 0.0
2018-Feb-15 07:30N 29°24' W 094°45'0 0.0
2018-Feb-15 06:58N 29°24' W 094°45'0 0.0
2018-Feb-15 06:28N 29°24' W 094°45'0 0.0
2018-Feb-15 06:00N 29°24' W 094°45'0 0.0
2018-Feb-15 05:29N 29°24' W 094°45'0 0.0
2018-Feb-15 05:00N 29°24' W 094°45'0 0.0
2018-Feb-15 04:30N 29°24' W 094°45'0 0.0
2018-Feb-15 04:00N 29°24' W 094°45'0 0.0
2018-Feb-15 03:30N 29°24' W 094°45'0 0.0
2018-Feb-15 03:00N 29°24' W 094°45'0 0.0
2018-Feb-15 02:31N 29°24' W 094°45'0 0.0
2018-Feb-15 01:59N 29°24' W 094°45'0 0.0
2018-Feb-15 01:27N 29°24' W 094°45'0 0.0
2018-Feb-15 00:42N 29°24' W 094°45'0 0.0
2018-Feb-15 00:18N 29°24' W 094°45'0 0.0
2018-Feb-14 23:54N 29°24' W 094°45'0 0.0
2018-Feb-14 23:30N 29°24' W 094°45'0 0.0
2018-Feb-14 22:58N 29°24' W 094°45'0 0.0
2018-Feb-14 22:25N 29°24' W 094°45'0 0.0
2018-Feb-14 22:00N 29°24' W 094°45'0 0.0
2018-Feb-14 21:08N 29°24' W 094°45'0 0.0
2018-Feb-14 20:55N 29°24' W 094°45'0 0.0
2018-Feb-14 20:28N 29°24' W 094°45'0 0.1
2018-Feb-14 19:04N 29°24' W 094°45'0 0.0
2018-Feb-14 18:55N 29°24' W 094°45'0 0.2
2018-Feb-14 18:30N 29°24' W 094°45'2 5.0
2018-Feb-14 18:00N 29°22' W 094°47'4 7.4
2018-Feb-14 17:30N 29°22' W 094°51'28 0.6
2018-Feb-12 18:38N 29°36' W 094°23'0 1.9
2018-Feb-12 18:25N 29°36' W 094°22'0 0.5
2018-Feb-12 18:00N 29°36' W 094°22'2 3.2
2018-Feb-12 17:24N 29°37' W 094°20'2 5.6
2018-Feb-12 17:00N 29°38' W 094°18'3 5.9
2018-Feb-12 16:30N 29°40' W 094°15'3 5.9
2018-Feb-12 16:00N 29°41' W 094°12'3 5.4
2018-Feb-12 15:31N 29°42' W 094°09'2 3.7
2018-Feb-12 15:01N 29°43' W 094°07'3 5.7
2018-Feb-12 14:29N 29°45' W 094°05'3 5.6
2018-Feb-12 14:01N 29°47' W 094°02'3 5.5
2018-Feb-12 13:30N 29°48' W 093°60'2 3.1
2018-Feb-12 13:01N 29°49' W 093°58'3 6.9
2018-Feb-12 12:30N 29°52' W 093°56'5 9.3
2018-Feb-12 12:00N 29°56' W 093°53'3 6.4
2018-Feb-12 11:30N 29°59' W 093°52'0 0.6
2018-Feb-12 11:01N 29°59' W 093°53'0 0.1
2018-Feb-12 10:29N 29°59' W 093°53'0 0.0
2018-Feb-12 10:00N 29°59' W 093°53'0 0.0
2018-Feb-12 09:30N 29°59' W 093°53'0 0.0
2018-Feb-12 09:00N 29°59' W 093°53'0 0.0
2018-Feb-12 08:31N 29°59' W 093°53'0 0.0
2018-Feb-12 08:00N 29°59' W 093°53'0 0.0
2018-Feb-12 07:30N 29°59' W 093°53'0 0.0
2018-Feb-12 07:00N 29°59' W 093°53'0 0.0
2018-Feb-12 06:31N 29°59' W 093°53'0 0.0
2018-Feb-12 06:01N 29°59' W 093°53'0 0.0
2018-Feb-12 05:30N 29°59' W 093°53'0 0.0
2018-Feb-12 05:00N 29°59' W 093°53'0 0.0
2018-Feb-12 04:31N 29°59' W 093°53'0 0.0
2018-Feb-12 04:00N 29°59' W 093°53'0 0.0
2018-Feb-12 03:30N 29°59' W 093°53'0 0.0
2018-Feb-12 03:00N 29°59' W 093°53'0 0.0
2018-Feb-12 02:30N 29°59' W 093°53'0 0.0
2018-Feb-12 02:00N 29°59' W 093°53'0 0.0
2018-Feb-12 01:30N 29°59' W 093°53'0 0.0
2018-Feb-12 01:00N 29°59' W 093°53'0 0.0
2018-Feb-12 00:31N 29°59' W 093°53'0 0.0
2018-Feb-12 00:00N 29°59' W 093°53'0 0.0
2018-Feb-11 23:30N 29°59' W 093°53'0 0.0
2018-Feb-11 22:59N 29°59' W 093°53'0 0.0
2018-Feb-11 22:30N 29°59' W 093°53'0 0.0
2018-Feb-11 22:00N 29°59' W 093°53'0 0.0
2018-Feb-11 21:30N 29°59' W 093°53'0 0.0
2018-Feb-11 21:00N 29°59' W 093°53'0 0.0
2018-Feb-11 20:26N 29°59' W 093°53'0 0.0
2018-Feb-11 20:00N 29°59' W 093°53'0 0.0
2018-Feb-11 19:30N 29°59' W 093°53'0 0.0
2018-Feb-11 19:00N 29°59' W 093°53'0 0.0
2018-Feb-11 18:30N 29°59' W 093°53'0 0.0
2018-Feb-11 18:00N 29°59' W 093°53'0 0.0
2018-Feb-11 17:30N 29°59' W 093°53'0 0.0
2018-Feb-11 17:01N 29°59' W 093°53'0 0.0
2018-Feb-11 16:30N 29°59' W 093°53'0 0.0
2018-Feb-11 16:01N 29°59' W 093°53'0 0.0
2018-Feb-11 15:30N 29°59' W 093°53'0 0.0
2018-Feb-11 15:00N 29°59' W 093°53'0 0.0
2018-Feb-11 14:30N 29°59' W 093°53'0 0.0
2018-Feb-11 14:00N 29°59' W 093°53'0 0.0
2018-Feb-11 13:31N 29°59' W 093°53'1 1.4
2018-Feb-11 13:00N 29°59' W 093°54'1 2.2
2018-Feb-11 12:30N 29°60' W 093°55'0 0.0
2018-Feb-11 12:00N 29°60' W 093°55'0 0.0
2018-Feb-11 11:30N 29°60' W 093°55'0 0.0
2018-Feb-11 11:00N 29°60' W 093°55'0 0.0
2018-Feb-11 10:30N 29°60' W 093°55'0 0.0
2018-Feb-11 10:00N 29°60' W 093°55'0 0.0
2018-Feb-11 09:30N 29°60' W 093°55'0 0.0
2018-Feb-11 09:00N 29°60' W 093°55'0 0.0
2018-Feb-11 08:30N 29°60' W 093°55'0 0.0
2018-Feb-11 08:00N 29°60' W 093°55'0 0.0
2018-Feb-11 07:30N 29°60' W 093°55'0 0.0
2018-Feb-11 07:00N 29°60' W 093°55'0 0.0
2018-Feb-11 06:30N 29°60' W 093°55'0 0.0
2018-Feb-11 06:00N 29°60' W 093°55'0 0.0
2018-Feb-11 05:30N 29°60' W 093°55'0 0.0
2018-Feb-11 05:00N 29°60' W 093°55'0 0.0
2018-Feb-11 04:30N 29°60' W 093°55'0 0.0
2018-Feb-11 04:00N 29°60' W 093°55'0 0.0
2018-Feb-11 03:30N 29°60' W 093°55'0 0.0
2018-Feb-11 02:59N 29°60' W 093°55'0 0.0
2018-Feb-11 02:30N 29°60' W 093°55'0 0.0
2018-Feb-11 02:00N 29°60' W 093°55'0 0.0
2018-Feb-11 01:30N 29°60' W 093°55'0 0.0
2018-Feb-11 00:59N 29°60' W 093°55'0 0.0
2018-Feb-11 00:30N 29°60' W 093°55'0 0.0
2018-Feb-11 00:00N 29°60' W 093°55'0 0.0
2018-Feb-10 23:30N 29°60' W 093°55'0 0.0
2018-Feb-10 23:00N 29°60' W 093°55'0 0.0
2018-Feb-10 22:29N 29°60' W 093°55'0 0.0
2018-Feb-10 22:01N 29°60' W 093°55'0 0.0
2018-Feb-10 21:30N 29°60' W 093°55'0 0.0
2018-Feb-10 21:00N 29°60' W 093°55'0 0.0
2018-Feb-10 20:31N 29°60' W 093°55'0 0.0
2018-Feb-10 20:00N 29°60' W 093°55'0 0.0
2018-Feb-10 19:30N 29°60' W 093°55'0 0.0
2018-Feb-10 19:00N 29°60' W 093°55'0 0.0
2018-Feb-10 18:30N 29°60' W 093°55'0 0.0
2018-Feb-10 18:00N 29°60' W 093°55'0 0.0
2018-Feb-10 17:30N 29°60' W 093°55'0 0.0
2018-Feb-10 17:00N 29°60' W 093°55'0 0.0
2018-Feb-10 16:30N 29°60' W 093°55'0 0.0
2018-Feb-10 16:00N 29°60' W 093°55'0 0.0
2018-Feb-10 15:30N 29°60' W 093°55'0 0.0
2018-Feb-10 15:00N 29°60' W 093°55'0 0.0
2018-Feb-10 14:30N 29°60' W 093°55'0 0.0
2018-Feb-10 14:01N 29°60' W 093°55'0 0.0
2018-Feb-10 13:30N 29°60' W 093°55'0 0.0
2018-Feb-10 13:00N 29°60' W 093°55'  

Dump ship's entire track history